createdAt,value
2018-06-23T00:00:23.701Z,0.00
2018-06-23T00:01:23.693Z,0.00
2018-06-23T00:02:23.681Z,0.00
2018-06-23T00:03:23.672Z,0.00
2018-06-23T00:04:23.663Z,0.00
2018-06-23T00:05:23.654Z,0.00
2018-06-23T00:06:23.644Z,0.00
2018-06-23T00:07:23.635Z,0.00
2018-06-23T00:08:23.626Z,0.00
2018-06-23T00:09:23.616Z,0.00
2018-06-23T00:10:23.607Z,0.00
2018-06-23T00:11:23.597Z,0.00
2018-06-23T00:12:23.588Z,0.00
2018-06-23T00:13:23.578Z,0.00
2018-06-23T00:14:23.568Z,0.00
2018-06-23T00:15:23.559Z,0.00
2018-06-23T00:16:23.550Z,0.00
2018-06-23T00:17:23.541Z,0.00
2018-06-23T00:18:23.531Z,0.00
2018-06-23T00:19:23.522Z,0.00
2018-06-23T00:20:23.512Z,0.00
2018-06-23T00:21:23.503Z,0.00
2018-06-23T00:22:23.498Z,0.00
2018-06-23T00:23:23.483Z,0.00
2018-06-23T00:24:23.475Z,0.00
2018-06-23T00:25:23.465Z,0.00
2018-06-23T00:26:23.455Z,0.00
2018-06-23T00:27:23.450Z,0.00
2018-06-23T00:28:23.437Z,0.00
2018-06-23T00:29:23.428Z,0.00
2018-06-23T00:30:23.417Z,0.00
2018-06-23T00:31:23.407Z,0.00
2018-06-23T00:32:23.398Z,0.00
2018-06-23T00:33:23.388Z,0.00
2018-06-23T00:34:23.379Z,0.00
2018-06-23T00:35:23.371Z,0.00
2018-06-23T00:36:23.360Z,0.00
2018-06-23T00:37:23.351Z,0.00
2018-06-23T00:38:23.341Z,0.00
2018-06-23T00:39:23.335Z,0.00
2018-06-23T00:40:23.328Z,0.00
2018-06-23T00:41:23.312Z,0.00
2018-06-23T00:42:23.302Z,0.00
2018-06-23T00:43:23.297Z,0.00
2018-06-23T00:44:23.283Z,0.00
2018-06-23T00:45:23.275Z,0.00
2018-06-23T00:46:23.265Z,0.00
2018-06-23T00:47:23.255Z,0.00
2018-06-23T00:48:23.249Z,0.00
2018-06-23T00:49:23.240Z,0.00
2018-06-23T00:50:23.227Z,0.00
2018-06-23T00:51:23.217Z,0.00
2018-06-23T00:52:23.207Z,0.00
2018-06-23T00:53:23.198Z,0.00
2018-06-23T00:54:23.193Z,0.00
2018-06-23T00:55:23.179Z,0.00
2018-06-23T00:56:23.169Z,0.00
2018-06-23T00:57:23.160Z,0.00
2018-06-23T00:58:23.150Z,0.00
2018-06-23T00:59:23.144Z,0.00
2018-06-23T01:00:23.131Z,0.00
2018-06-23T01:01:23.122Z,0.00
2018-06-23T01:02:23.116Z,0.00
2018-06-23T01:03:23.103Z,0.00
2018-06-23T01:04:23.093Z,0.00
2018-06-23T01:05:23.083Z,0.00
2018-06-23T01:06:23.073Z,0.00
2018-06-23T01:07:23.065Z,0.00
2018-06-23T01:08:23.054Z,0.00
2018-06-23T01:09:23.046Z,0.00
2018-06-23T01:10:23.035Z,0.00
2018-06-23T01:11:23.026Z,0.00
2018-06-23T01:12:23.016Z,0.00
2018-06-23T01:13:23.007Z,0.00
2018-06-23T01:14:22.998Z,0.00
2018-06-23T01:15:22.987Z,0.00
2018-06-23T01:16:22.978Z,0.00
2018-06-23T01:17:22.970Z,0.00
2018-06-23T01:18:22.958Z,0.00
2018-06-23T01:19:22.948Z,0.00
2018-06-23T01:20:22.942Z,0.00
2018-06-23T01:21:22.929Z,0.00
2018-06-23T01:22:22.919Z,0.00
2018-06-23T01:23:22.909Z,0.00
2018-06-23T01:24:22.900Z,0.00
2018-06-23T01:25:22.891Z,0.00
2018-06-23T01:26:22.881Z,0.00
2018-06-23T01:27:22.871Z,0.00
2018-06-23T01:28:22.862Z,0.00
2018-06-23T01:29:22.857Z,0.00
2018-06-23T01:30:22.842Z,0.00
2018-06-23T01:31:22.832Z,0.00
2018-06-23T01:32:22.822Z,0.00
2018-06-23T01:33:22.818Z,0.00
2018-06-23T01:34:22.803Z,0.00
2018-06-23T01:35:22.793Z,0.00
2018-06-23T01:36:22.784Z,0.00
2018-06-23T01:37:22.775Z,0.00
2018-06-23T01:38:22.764Z,0.00
2018-06-23T01:39:22.754Z,0.00
2018-06-23T01:40:22.746Z,0.00
2018-06-23T01:41:22.736Z,0.00
2018-06-23T01:42:22.726Z,0.00
2018-06-23T01:43:22.716Z,0.00
2018-06-23T01:44:22.706Z,0.00
2018-06-23T01:45:22.697Z,0.00
2018-06-23T01:46:22.687Z,0.00
2018-06-23T01:47:22.677Z,0.00
2018-06-23T01:48:22.667Z,0.00
2018-06-23T01:49:22.658Z,0.00
2018-06-23T01:50:22.647Z,0.00
2018-06-23T01:51:22.638Z,0.00
2018-06-23T01:52:22.630Z,0.00
2018-06-23T01:53:22.619Z,0.00
2018-06-23T01:54:22.608Z,0.00
2018-06-23T01:55:22.599Z,0.00
2018-06-23T01:56:22.595Z,0.00
2018-06-23T01:57:22.583Z,0.00
2018-06-23T01:58:22.569Z,0.00
2018-06-23T01:59:22.560Z,0.00
2018-06-23T02:00:22.555Z,0.00
2018-06-23T02:01:22.541Z,0.00
2018-06-23T02:02:22.531Z,0.00
2018-06-23T02:03:22.521Z,0.00
2018-06-23T02:04:22.511Z,0.00
2018-06-23T02:05:22.502Z,0.00
2018-06-23T02:06:22.491Z,0.00
2018-06-23T02:07:22.481Z,0.00
2018-06-23T02:08:22.472Z,0.00
2018-06-23T02:09:22.465Z,0.00
2018-06-23T02:10:22.458Z,0.00
2018-06-23T02:11:22.442Z,0.00
2018-06-23T02:12:22.433Z,0.00
2018-06-23T02:13:22.423Z,0.00
2018-06-23T02:14:22.414Z,0.00
2018-06-23T02:15:22.404Z,0.00
2018-06-23T02:16:22.394Z,0.00
2018-06-23T02:17:22.384Z,0.00
2018-06-23T02:18:22.375Z,0.00
2018-06-23T02:19:22.364Z,0.00
2018-06-23T02:20:22.355Z,0.00
2018-06-23T02:21:22.346Z,0.00
2018-06-23T02:22:22.336Z,0.00
2018-06-23T02:23:22.330Z,0.00
2018-06-23T02:24:22.317Z,0.00
2018-06-23T02:25:22.306Z,0.00
2018-06-23T02:26:22.296Z,0.00
2018-06-23T02:27:22.289Z,0.00
2018-06-23T02:28:22.277Z,0.00
2018-06-23T02:29:22.267Z,0.00
2018-06-23T02:30:22.258Z,0.00
2018-06-23T02:31:22.247Z,0.00
2018-06-23T02:32:22.238Z,0.00
2018-06-23T02:33:22.228Z,0.00
2018-06-23T02:34:22.218Z,0.00
2018-06-23T02:35:22.210Z,0.00
2018-06-23T02:36:22.202Z,0.00
2018-06-23T02:37:22.195Z,0.00
2018-06-23T02:38:22.181Z,0.00
2018-06-23T02:39:22.169Z,0.00
2018-06-23T02:40:22.159Z,0.00
2018-06-23T02:41:22.151Z,0.00
2018-06-23T02:42:22.142Z,4.00
2018-06-23T02:43:22.130Z,4.00
2018-06-23T02:44:22.121Z,4.00
2018-06-23T02:45:22.111Z,4.00
2018-06-23T02:46:22.101Z,0.00
2018-06-23T02:47:22.093Z,4.00
2018-06-23T02:48:22.085Z,4.00
2018-06-23T02:49:22.071Z,4.00
2018-06-23T02:50:22.080Z,4.00
2018-06-23T02:51:22.051Z,4.00
2018-06-23T02:52:22.045Z,8.00
2018-06-23T02:53:22.032Z,4.00
2018-06-23T02:54:22.023Z,8.00
2018-06-23T02:55:22.012Z,12.00
2018-06-23T02:56:22.009Z,12.00
2018-06-23T02:57:21.993Z,12.00
2018-06-23T02:58:21.983Z,16.00
2018-06-23T02:59:21.973Z,16.00
2018-06-23T03:00:21.963Z,16.00
2018-06-23T03:01:21.954Z,20.00
2018-06-23T03:02:21.943Z,24.00
2018-06-23T03:03:21.938Z,24.00
2018-06-23T03:04:21.927Z,24.00
2018-06-23T03:05:21.914Z,32.00
2018-06-23T03:06:21.904Z,32.00
2018-06-23T03:07:21.899Z,40.00
2018-06-23T03:08:21.884Z,44.00
2018-06-23T03:09:21.875Z,48.00
2018-06-23T03:10:21.864Z,52.00
2018-06-23T03:11:21.855Z,56.00
2018-06-23T03:12:21.848Z,64.00
2018-06-23T03:13:21.836Z,72.00
2018-06-23T03:14:21.825Z,76.00
2018-06-23T03:15:21.815Z,84.00
2018-06-23T03:16:21.809Z,88.00
2018-06-23T03:17:21.797Z,96.00
2018-06-23T03:18:21.786Z,104.00
2018-06-23T03:19:21.776Z,116.00
2018-06-23T03:20:21.767Z,124.00
2018-06-23T03:21:21.759Z,132.00
2018-06-23T03:22:21.750Z,144.00
2018-06-23T03:23:21.740Z,156.00
2018-06-23T03:24:21.735Z,168.00
2018-06-23T03:25:21.718Z,180.00
2018-06-23T03:26:21.707Z,192.00
2018-06-23T03:27:21.900Z,200.00
2018-06-23T03:28:21.687Z,212.00
2018-06-23T03:29:21.680Z,224.00
2018-06-23T03:30:21.671Z,232.00
2018-06-23T03:31:21.673Z,244.00
2018-06-23T03:32:21.653Z,256.00
2018-06-23T03:33:21.642Z,272.00
2018-06-23T03:34:21.630Z,284.00
2018-06-23T03:35:21.619Z,296.00
2018-06-23T03:36:21.609Z,312.00
2018-06-23T03:37:21.600Z,324.00
2018-06-23T03:38:21.592Z,340.00
2018-06-23T03:39:21.582Z,356.00
2018-06-23T03:40:21.572Z,368.00
2018-06-23T03:41:21.561Z,384.00
2018-06-23T03:42:21.550Z,404.00
2018-06-23T03:43:21.544Z,424.00
2018-06-23T03:44:21.735Z,452.00
2018-06-23T03:45:21.525Z,476.00
2018-06-23T03:46:21.510Z,504.00
2018-06-23T03:47:21.501Z,532.00
2018-06-23T03:48:21.496Z,560.00
2018-06-23T03:49:21.485Z,584.00
2018-06-23T03:50:21.470Z,608.00
2018-06-23T03:51:21.461Z,632.00
2018-06-23T03:52:21.452Z,656.00
2018-06-23T03:53:21.442Z,672.00
2018-06-23T03:54:21.431Z,680.00
2018-06-23T03:55:21.422Z,704.00
2018-06-23T03:56:21.416Z,728.00
2018-06-23T03:57:21.404Z,760.00
2018-06-23T03:58:21.395Z,792.00
2018-06-23T03:59:21.382Z,832.00
2018-06-23T04:00:21.372Z,884.00
2018-06-23T04:01:21.363Z,908.00
2018-06-23T04:02:21.352Z,932.00
2018-06-23T04:03:21.346Z,960.00
2018-06-23T04:04:21.334Z,1000.00
2018-06-23T04:05:21.323Z,1036.00
2018-06-23T04:07:21.303Z,1092.00
2018-06-23T04:08:21.293Z,1120.00
2018-06-23T04:09:21.283Z,1148.00
2018-06-23T04:10:21.273Z,1180.00
2018-06-23T04:11:21.319Z,1204.00
2018-06-23T04:12:21.254Z,1228.00
2018-06-23T04:13:21.244Z,1256.00
2018-06-23T04:14:21.233Z,1280.00
2018-06-23T04:15:21.227Z,1304.00
2018-06-23T04:16:21.214Z,1332.00
2018-06-23T04:17:21.205Z,1360.00
2018-06-23T04:18:21.205Z,1392.00
2018-06-23T04:19:21.184Z,1420.00
2018-06-23T04:20:21.175Z,1460.00
2018-06-23T04:21:21.165Z,1492.00
2018-06-23T04:22:21.159Z,1468.00
2018-06-23T04:23:21.147Z,1496.00
2018-06-23T04:24:21.136Z,1720.00
2018-06-23T04:25:21.127Z,1976.00
2018-06-23T04:26:21.116Z,2120.00
2018-06-23T04:27:21.106Z,2268.00
2018-06-23T04:28:21.097Z,2800.00
2018-06-23T04:29:21.200Z,2760.00
2018-06-23T04:30:21.077Z,2528.00
2018-06-23T04:31:21.068Z,2096.00
2018-06-23T04:32:21.059Z,1844.00
2018-06-23T04:33:21.049Z,1828.00
2018-06-23T04:34:21.039Z,1836.00
2018-06-23T04:35:21.037Z,1852.00
2018-06-23T04:37:21.015Z,1888.00
2018-06-23T04:38:21.006Z,1904.00
2018-06-23T04:39:20.992Z,1920.00
2018-06-23T04:40:20.982Z,1948.00
2018-06-23T04:41:20.973Z,1980.00
2018-06-23T04:42:20.963Z,2004.00
2018-06-23T04:43:20.954Z,2024.00
2018-06-23T04:44:20.944Z,2048.00
2018-06-23T04:45:20.935Z,2068.00
2018-06-23T04:46:20.928Z,2104.00
2018-06-23T04:47:20.916Z,2136.00
2018-06-23T04:48:20.906Z,2168.00
2018-06-23T04:49:20.897Z,2184.00
2018-06-23T04:50:20.887Z,2188.00
2018-06-23T04:51:20.878Z,2216.00
2018-06-23T04:52:20.869Z,2236.00
2018-06-23T04:53:21.068Z,2256.00
2018-06-23T04:54:20.850Z,2276.00
2018-06-23T04:55:20.841Z,2312.00
2018-06-23T04:56:20.838Z,2356.00
2018-06-23T04:57:20.826Z,2384.00
2018-06-23T04:58:20.812Z,2400.00
2018-06-23T04:59:20.803Z,2404.00
2018-06-23T05:00:20.816Z,2428.00
2018-06-23T05:01:20.785Z,2460.00
2018-06-23T05:02:20.775Z,2504.00
2018-06-23T05:03:20.766Z,2568.00
2018-06-23T05:04:20.761Z,2616.00
2018-06-23T05:05:20.748Z,2708.00
2018-06-23T05:06:20.742Z,2740.00
2018-06-23T05:08:20.924Z,2784.00
2018-06-23T05:09:20.719Z,2852.00
2018-06-23T05:10:20.701Z,2912.00
2018-06-23T05:11:20.691Z,2908.00
2018-06-23T05:12:20.686Z,3040.00
2018-06-23T05:13:20.674Z,3396.00
2018-06-23T05:14:20.664Z,3412.00
2018-06-23T05:15:20.857Z,3444.00
2018-06-23T05:16:20.646Z,3616.00
2018-06-23T05:17:20.637Z,4016.00
2018-06-23T05:18:20.633Z,4392.00
2018-06-23T05:19:20.622Z,4728.00
2018-06-23T05:20:20.684Z,4780.00
2018-06-23T05:21:20.602Z,5348.00
2018-06-23T05:22:20.591Z,5820.00
2018-06-23T05:23:20.582Z,6220.00
2018-06-23T05:24:20.577Z,6212.00
2018-06-23T05:25:20.565Z,6284.00
2018-06-23T05:26:20.556Z,5972.00
2018-06-23T05:27:20.549Z,5704.00
2018-06-23T05:28:20.538Z,5424.00
2018-06-23T05:29:20.531Z,4900.00
2018-06-23T05:30:20.527Z,4516.00
2018-06-23T05:31:20.512Z,4140.00
2018-06-23T05:32:20.508Z,4040.00
2018-06-23T05:33:20.496Z,3752.00
2018-06-23T05:34:20.487Z,3584.00
2018-06-23T05:35:20.477Z,3536.00
2018-06-23T05:36:20.469Z,3548.00
2018-06-23T05:37:20.461Z,3660.00
2018-06-23T05:38:20.451Z,4716.00
2018-06-23T05:39:20.645Z,4484.00
2018-06-23T05:40:20.435Z,5524.00
2018-06-23T05:41:20.430Z,6208.00
2018-06-23T05:42:20.419Z,6580.00
2018-06-23T05:43:20.413Z,6936.00
2018-06-23T05:44:20.400Z,7860.00
2018-06-23T05:45:20.395Z,8068.00
2018-06-23T05:46:20.385Z,8092.00
2018-06-23T05:47:20.374Z,8232.00
2018-06-23T05:48:20.366Z,8516.00
2018-06-23T05:49:20.358Z,8756.00
2018-06-23T05:50:20.357Z,8852.00
2018-06-23T05:51:20.385Z,8856.00
2018-06-23T05:52:20.339Z,9108.00
2018-06-23T05:53:20.329Z,9252.00
2018-06-23T05:54:20.316Z,9420.00
2018-06-23T05:55:20.308Z,9596.00
2018-06-23T05:56:20.301Z,9840.00
2018-06-23T05:57:20.293Z,9624.00
2018-06-23T05:58:20.289Z,9248.00
2018-06-23T05:59:20.277Z,9136.00
2018-06-23T06:00:20.273Z,9072.00
2018-06-23T06:01:20.266Z,8704.00
2018-06-23T06:02:20.260Z,8244.00
2018-06-23T06:03:20.245Z,8668.00
2018-06-23T06:04:20.238Z,8720.00
2018-06-23T06:05:20.231Z,8912.00
2018-06-23T06:06:20.224Z,9136.00
2018-06-23T06:07:20.218Z,8580.00
2018-06-23T06:08:20.206Z,7776.00
2018-06-23T06:09:20.404Z,7064.00
2018-06-23T06:10:20.191Z,6112.00
2018-06-23T06:11:20.189Z,5284.00
2018-06-23T06:12:20.177Z,4856.00
2018-06-23T06:13:20.175Z,4872.00
2018-06-23T06:14:20.172Z,5232.00
2018-06-23T06:15:20.157Z,5744.00
2018-06-23T06:16:20.146Z,6084.00
2018-06-23T06:17:20.139Z,5800.00
2018-06-23T06:18:20.136Z,5792.00
2018-06-23T06:19:20.133Z,5836.00
2018-06-23T06:20:20.115Z,6488.00
2018-06-23T06:21:20.110Z,6640.00
2018-06-23T06:22:20.100Z,6280.00
2018-06-23T06:23:20.092Z,6508.00
2018-06-23T06:24:20.094Z,6024.00
2018-06-23T06:25:20.078Z,5688.00
2018-06-23T06:26:20.070Z,5824.00
2018-06-23T06:27:20.065Z,6708.00
2018-06-23T06:28:20.055Z,7444.00
2018-06-23T06:29:20.051Z,7484.00
2018-06-23T06:30:20.039Z,7300.00
2018-06-23T06:31:20.032Z,7464.00
2018-06-23T06:32:20.026Z,7820.00
2018-06-23T06:33:20.020Z,8140.00
2018-06-23T06:34:20.009Z,8384.00
2018-06-23T06:35:20.003Z,8732.00
2018-06-23T06:36:19.995Z,9224.00
2018-06-23T06:37:19.988Z,9432.00
2018-06-23T06:38:19.980Z,9012.00
2018-06-23T06:39:19.973Z,8772.00
2018-06-23T06:40:19.966Z,8784.00
2018-06-23T06:41:19.961Z,8684.00
2018-06-23T06:42:19.957Z,8888.00
2018-06-23T06:43:19.947Z,9204.00
2018-06-23T06:44:19.936Z,9476.00
2018-06-23T06:45:19.930Z,10580.00
2018-06-23T06:46:19.926Z,12156.00
2018-06-23T06:47:19.917Z,14620.00
2018-06-23T06:48:19.908Z,16576.00
2018-06-23T06:49:19.910Z,17024.00
2018-06-23T06:50:19.896Z,15936.00
2018-06-23T06:51:19.887Z,14928.00
2018-06-23T06:52:19.881Z,14100.00
2018-06-23T06:53:19.877Z,13892.00
2018-06-23T06:54:19.867Z,14728.00
2018-06-23T06:55:19.860Z,15552.00
2018-06-23T06:56:19.858Z,15768.00
2018-06-23T06:57:19.848Z,14012.00
2018-06-23T06:58:19.845Z,12124.00
2018-06-23T06:59:19.835Z,10312.00
2018-06-23T07:00:19.829Z,9324.00
2018-06-23T07:01:19.823Z,10176.00
2018-06-23T07:02:19.820Z,12468.00
2018-06-23T07:03:19.816Z,10964.00
2018-06-23T07:04:19.807Z,11356.00
2018-06-23T07:05:19.804Z,13388.00
2018-06-23T07:06:19.795Z,14700.00
2018-06-23T07:07:19.788Z,13960.00
2018-06-23T07:08:19.779Z,12824.00
2018-06-23T07:09:19.773Z,13436.00
2018-06-23T07:10:19.770Z,14296.00
2018-06-23T07:11:19.764Z,12008.00
2018-06-23T07:12:19.759Z,10304.00
2018-06-23T07:13:19.951Z,9428.00
2018-06-23T07:14:19.741Z,10176.00
2018-06-23T07:15:19.736Z,12748.00
2018-06-23T07:16:19.730Z,13308.00
2018-06-23T07:17:19.724Z,12548.00
2018-06-23T07:18:19.717Z,10920.00
2018-06-23T07:19:19.713Z,10860.00
2018-06-23T07:20:19.705Z,12168.00
2018-06-23T07:21:19.702Z,12756.00
2018-06-23T07:22:19.693Z,12948.00
2018-06-23T07:23:19.687Z,13584.00
2018-06-23T07:24:19.681Z,14144.00
2018-06-23T07:25:19.677Z,13932.00
2018-06-23T07:26:19.668Z,13788.00
2018-06-23T07:27:19.864Z,14716.00
2018-06-23T07:28:19.862Z,16068.00
2018-06-23T07:29:19.651Z,15144.00
2018-06-23T07:30:19.644Z,14180.00
2018-06-23T07:31:19.644Z,14860.00
2018-06-23T07:32:19.633Z,15412.00
2018-06-23T07:33:19.627Z,16768.00
2018-06-23T07:34:19.693Z,16864.00
2018-06-23T07:35:19.847Z,16928.00
2018-06-23T07:36:19.609Z,30336.00
2018-06-23T07:37:19.604Z,17856.00
2018-06-23T07:38:19.599Z,13396.00
2018-06-23T07:39:19.593Z,13220.00
2018-06-23T07:40:19.589Z,14916.00
2018-06-23T07:41:19.583Z,17760.00
2018-06-23T07:42:19.582Z,18016.00
2018-06-23T07:45:19.561Z,16864.00
2018-06-23T07:46:19.555Z,19424.00
2018-06-23T07:47:19.555Z,20448.00
2018-06-23T07:48:19.545Z,18560.00
2018-06-23T07:49:19.540Z,20800.00
2018-06-23T07:50:19.534Z,20960.00
2018-06-23T07:51:19.529Z,22112.00
2018-06-23T07:52:19.535Z,65472.00
2018-06-23T07:53:19.521Z,56416.00
2018-06-23T07:54:19.514Z,23008.00
2018-06-23T07:55:19.510Z,28256.00
2018-06-23T07:56:19.671Z,39552.00
2018-06-23T07:57:19.503Z,27648.00
2018-06-23T07:58:19.498Z,27136.00
2018-06-23T07:59:19.498Z,35424.00
2018-06-23T08:00:19.492Z,47616.00
2018-06-23T08:01:19.489Z,37376.00
2018-06-23T08:02:19.490Z,36064.00
2018-06-23T08:04:19.481Z,25056.00
2018-06-23T08:05:19.479Z,23744.00
2018-06-23T08:06:19.476Z,22528.00
2018-06-23T08:07:19.473Z,15896.00
2018-06-23T08:08:19.478Z,12352.00
2018-06-23T08:09:19.468Z,9980.00
2018-06-23T08:10:19.469Z,8748.00
2018-06-23T08:11:19.467Z,8576.00
2018-06-23T08:12:19.463Z,10284.00
2018-06-23T08:13:19.456Z,10100.00
2018-06-23T08:14:19.451Z,8956.00
2018-06-23T08:15:19.447Z,8152.00
2018-06-23T08:16:19.447Z,7880.00
2018-06-23T08:17:19.441Z,8348.00
2018-06-23T08:18:19.641Z,8356.00
2018-06-23T08:19:19.431Z,7976.00
2018-06-23T08:20:19.427Z,8524.00
2018-06-23T08:21:19.422Z,8904.00
2018-06-23T08:22:19.416Z,9088.00
2018-06-23T08:23:19.412Z,8928.00
2018-06-23T08:24:19.408Z,9784.00
2018-06-23T08:25:19.404Z,8844.00
2018-06-23T08:26:19.610Z,6572.00
2018-06-23T08:27:19.403Z,4668.00
2018-06-23T08:28:19.391Z,3584.00
2018-06-23T08:29:19.380Z,3368.00
2018-06-23T08:30:19.374Z,3844.00
2018-06-23T08:31:19.373Z,4244.00
2018-06-23T08:32:19.362Z,4336.00
2018-06-23T08:33:19.357Z,5128.00
2018-06-23T08:34:19.351Z,5600.00
2018-06-23T08:35:19.343Z,5676.00
2018-06-23T08:36:19.338Z,7792.00
2018-06-23T08:37:19.332Z,11824.00
2018-06-23T08:38:19.325Z,15392.00
2018-06-23T08:39:19.327Z,17824.00
2018-06-23T08:40:19.320Z,17888.00
2018-06-23T08:41:19.309Z,17344.00
2018-06-23T08:42:19.302Z,17952.00
2018-06-23T08:43:19.298Z,20384.00
2018-06-23T08:44:19.294Z,20896.00
2018-06-23T08:45:19.288Z,20480.00
2018-06-23T08:46:19.278Z,21312.00
2018-06-23T08:47:19.275Z,26240.00
2018-06-23T08:48:19.267Z,24352.00
2018-06-23T08:49:19.264Z,32416.00
2018-06-23T08:50:19.257Z,37600.00
2018-06-23T08:51:19.252Z,31904.00
2018-06-23T08:52:19.248Z,55648.00
2018-06-23T08:53:19.251Z,26848.00
2018-06-23T08:54:19.244Z,34560.00
2018-06-23T08:55:19.240Z,30496.00
2018-06-23T08:56:19.435Z,46368.00
2018-06-23T08:57:19.230Z,64352.00
2018-06-23T08:58:19.226Z,68128.00
2018-06-23T08:59:19.224Z,48128.00
2018-06-23T09:00:19.224Z,57824.00
2018-06-23T09:01:19.232Z,40864.00
2018-06-23T09:02:19.423Z,37920.00
2018-06-23T09:03:19.221Z,69664.00
2018-06-23T09:04:19.429Z,30016.00
2018-06-23T09:05:19.251Z,76416.00
2018-06-23T09:06:19.221Z,39456.00
2018-06-23T09:07:19.224Z,84448.00
2018-06-23T09:08:19.233Z,44928.00
2018-06-23T09:09:19.226Z,34272.00
2018-06-23T09:10:19.229Z,41824.00
2018-06-23T09:11:19.228Z,89824.00
2018-06-23T09:12:19.231Z,23936.00
2018-06-23T09:13:19.234Z,15548.00
2018-06-23T09:14:19.441Z,15328.00
2018-06-23T09:15:19.236Z,17344.00
2018-06-23T09:16:19.642Z,18464.00
2018-06-23T09:17:19.242Z,17984.00
2018-06-23T09:18:19.240Z,27840.00
2018-06-23T09:19:19.239Z,25632.00
2018-06-23T09:20:19.241Z,20288.00
2018-06-23T09:21:19.244Z,82976.00
2018-06-23T09:22:19.240Z,83680.00
2018-06-23T09:23:19.239Z,82528.00
2018-06-23T09:24:19.240Z,84608.00
2018-06-23T09:25:19.243Z,89408.00
2018-06-23T09:26:19.244Z,42272.00
2018-06-23T09:27:19.248Z,31808.00
2018-06-23T09:28:19.251Z,27712.00
2018-06-23T09:29:19.257Z,30784.00
2018-06-23T09:30:19.459Z,54560.00
2018-06-23T09:31:19.266Z,48256.00
2018-06-23T09:32:19.263Z,39936.00
2018-06-23T09:33:19.267Z,51296.00
2018-06-23T09:34:19.273Z,37984.00
2018-06-23T09:35:19.271Z,35008.00
2018-06-23T09:36:19.276Z,72576.00
2018-06-23T09:37:19.277Z,49376.00
2018-06-23T09:38:19.279Z,33056.00
2018-06-23T09:39:19.285Z,31264.00
2018-06-23T09:40:19.285Z,33376.00
2018-06-23T09:41:19.287Z,28416.00
2018-06-23T09:42:19.289Z,30720.00
2018-06-23T09:43:19.291Z,37184.00
2018-06-23T09:44:19.296Z,57376.00
2018-06-23T09:45:19.502Z,47488.00
2018-06-23T09:46:19.297Z,62304.00
2018-06-23T09:47:19.300Z,77056.00
2018-06-23T09:48:19.304Z,48288.00
2018-06-23T09:49:19.307Z,29120.00
2018-06-23T09:50:19.308Z,20256.00
2018-06-23T09:51:19.318Z,15904.00
2018-06-23T09:52:19.316Z,15460.00
2018-06-23T09:53:19.319Z,17056.00
2018-06-23T09:54:19.321Z,18240.00
2018-06-23T09:55:19.330Z,18720.00
2018-06-23T09:56:19.326Z,19264.00
2018-06-23T09:57:19.331Z,21600.00
2018-06-23T09:58:19.335Z,25312.00
2018-06-23T09:59:19.327Z,27488.00
2018-06-23T10:00:19.329Z,32160.00
2018-06-23T10:01:19.329Z,30752.00
2018-06-23T10:02:19.328Z,23296.00
2018-06-23T10:03:19.377Z,17760.00
2018-06-23T10:04:19.330Z,17472.00
2018-06-23T10:05:19.334Z,16480.00
2018-06-23T10:06:19.329Z,16036.00
2018-06-23T10:07:19.364Z,22208.00
2018-06-23T10:08:19.335Z,32064.00
2018-06-23T10:09:19.336Z,26368.00
2018-06-23T10:10:19.328Z,28992.00
2018-06-23T10:11:19.333Z,27872.00
2018-06-23T10:12:19.328Z,25792.00
2018-06-23T10:13:19.329Z,23776.00
2018-06-23T10:15:19.361Z,17472.00
2018-06-23T10:16:19.327Z,17184.00
2018-06-23T10:17:19.329Z,19040.00
2018-06-23T10:18:19.324Z,20800.00
2018-06-23T10:19:19.324Z,20192.00
2018-06-23T10:20:19.323Z,19072.00
2018-06-23T10:21:19.322Z,18656.00
2018-06-23T10:22:19.324Z,18592.00
2018-06-23T10:23:19.318Z,17920.00
2018-06-23T10:24:19.520Z,17440.00
2018-06-23T10:25:19.321Z,16512.00
2018-06-23T10:26:19.319Z,14372.00
2018-06-23T10:27:19.376Z,12500.00
2018-06-23T10:28:19.311Z,11012.00
2018-06-23T10:29:19.313Z,9788.00
2018-06-23T10:30:19.508Z,8900.00
2018-06-23T10:31:19.309Z,8180.00
2018-06-23T10:32:19.307Z,7940.00
2018-06-23T10:33:19.304Z,7968.00
2018-06-23T10:34:19.303Z,9420.00
2018-06-23T10:35:19.497Z,10340.00
2018-06-23T10:36:19.293Z,12144.00
2018-06-23T10:37:19.290Z,13940.00
2018-06-23T10:38:19.324Z,14352.00
2018-06-23T10:39:19.286Z,14120.00
2018-06-23T10:40:19.280Z,16040.00
2018-06-23T10:41:19.277Z,20128.00
2018-06-23T10:42:19.276Z,22272.00
2018-06-23T10:43:19.275Z,22592.00
2018-06-23T10:44:19.267Z,22496.00
2018-06-23T10:45:19.265Z,21696.00
2018-06-23T10:46:19.323Z,19584.00
2018-06-23T10:47:19.262Z,17920.00
2018-06-23T10:48:19.258Z,16352.00
2018-06-23T10:49:19.254Z,14404.00
2018-06-23T10:50:19.250Z,12744.00
2018-06-23T10:51:19.252Z,11960.00
2018-06-23T10:52:19.247Z,12216.00
2018-06-23T10:53:19.245Z,11008.00
2018-06-23T10:54:19.237Z,9620.00
2018-06-23T10:55:19.234Z,9236.00
2018-06-23T10:56:19.231Z,8364.00
2018-06-23T10:57:19.228Z,7568.00
2018-06-23T10:58:19.230Z,7792.00
2018-06-23T10:59:19.227Z,8100.00
2018-06-23T11:00:19.217Z,9116.00
2018-06-23T11:01:19.214Z,9240.00
2018-06-23T11:02:19.212Z,8848.00
2018-06-23T11:03:19.408Z,8312.00
2018-06-23T11:04:19.202Z,8428.00
2018-06-23T11:05:19.202Z,9008.00
2018-06-23T11:06:19.194Z,10260.00
2018-06-23T11:07:19.190Z,11512.00
2018-06-23T11:08:19.187Z,10764.00
2018-06-23T11:09:19.184Z,9700.00
2018-06-23T11:10:19.380Z,8280.00
2018-06-23T11:11:19.174Z,8076.00
2018-06-23T11:12:19.171Z,8560.00
2018-06-23T11:13:19.170Z,10100.00
2018-06-23T11:14:19.170Z,10316.00
2018-06-23T11:15:19.158Z,10248.00
2018-06-23T11:16:19.159Z,10684.00
2018-06-23T11:17:19.155Z,10420.00
2018-06-23T11:18:19.146Z,9368.00
2018-06-23T11:19:19.142Z,8832.00
2018-06-23T11:20:19.140Z,8228.00
2018-06-23T11:21:19.138Z,8200.00
2018-06-23T11:22:19.131Z,8604.00
2018-06-23T11:23:19.125Z,8980.00
2018-06-23T11:24:19.180Z,9444.00
2018-06-23T11:25:19.119Z,9144.00
2018-06-23T11:26:19.122Z,9188.00
2018-06-23T11:27:19.110Z,8884.00
2018-06-23T11:28:19.106Z,9048.00
2018-06-23T11:29:19.100Z,9536.00
2018-06-23T11:30:19.095Z,9512.00
2018-06-23T11:31:19.090Z,9740.00
2018-06-23T11:32:19.096Z,9352.00
2018-06-23T11:33:19.088Z,9020.00
2018-06-23T11:34:19.076Z,9280.00
2018-06-23T11:35:19.072Z,8492.00
2018-06-23T11:36:19.068Z,7540.00
2018-06-23T11:37:19.063Z,6808.00
2018-06-23T11:38:19.061Z,6976.00
2018-06-23T11:39:19.055Z,8004.00
2018-06-23T11:40:19.049Z,7880.00
2018-06-23T11:41:19.071Z,8128.00
2018-06-23T11:42:19.039Z,9080.00
2018-06-23T11:43:19.034Z,9936.00
2018-06-23T11:44:19.034Z,10380.00
2018-06-23T11:45:19.025Z,11256.00
2018-06-23T11:46:19.022Z,11920.00
2018-06-23T11:47:19.027Z,11944.00
2018-06-23T11:48:19.010Z,11516.00
2018-06-23T11:49:19.008Z,9996.00
2018-06-23T11:50:19.000Z,8716.00
2018-06-23T11:51:19.003Z,9208.00
2018-06-23T11:52:19.288Z,9624.00
2018-06-23T11:53:18.987Z,10380.00
2018-06-23T11:54:18.984Z,10464.00
2018-06-23T11:55:18.978Z,9596.00
2018-06-23T11:56:18.975Z,9432.00
2018-06-23T11:57:18.970Z,9284.00
2018-06-23T11:58:18.965Z,9384.00
2018-06-23T11:59:18.960Z,9260.00
2018-06-23T12:00:18.959Z,8348.00
2018-06-23T12:01:18.952Z,7700.00
2018-06-23T12:02:18.947Z,7164.00
2018-06-23T12:03:18.944Z,6792.00
2018-06-23T12:04:18.939Z,6580.00
2018-06-23T12:05:18.942Z,6272.00
2018-06-23T12:06:18.929Z,6520.00
2018-06-23T12:07:18.924Z,7036.00
2018-06-23T12:08:18.920Z,7524.00
2018-06-23T12:09:18.915Z,7840.00
2018-06-23T12:10:18.914Z,7676.00
2018-06-23T12:11:18.951Z,7364.00
2018-06-23T12:12:18.906Z,7344.00
2018-06-23T12:13:18.897Z,7752.00
2018-06-23T12:14:18.898Z,9020.00
2018-06-23T12:15:18.886Z,9936.00
2018-06-23T12:16:18.881Z,10764.00
2018-06-23T12:17:18.877Z,12844.00
2018-06-23T12:18:18.877Z,15660.00
2018-06-23T12:19:18.867Z,16284.00
2018-06-23T12:20:18.863Z,16800.00
2018-06-23T12:21:18.860Z,15108.00
2018-06-23T12:22:18.853Z,13764.00
2018-06-23T12:23:18.849Z,12400.00
2018-06-23T12:24:18.848Z,11108.00